createdAt,value
2023-11-24T00:00:11.110Z,2.97
2023-11-24T00:03:16.494Z,2.97
2023-11-24T00:06:18.852Z,3.01
2023-11-24T00:09:22.808Z,3.03
2023-11-24T00:12:26.278Z,3.01
2023-11-24T00:15:28.684Z,2.91
2023-11-24T00:18:31.590Z,2.90
2023-11-24T00:21:37.344Z,2.77
2023-11-24T00:24:39.748Z,2.74
2023-11-24T00:27:42.654Z,2.66
2023-11-24T00:30:44.968Z,2.57
2023-11-24T00:33:48.718Z,2.53
2023-11-24T00:36:51.625Z,2.44
2023-11-24T00:39:54.117Z,2.40
2023-11-24T00:42:56.641Z,2.41
2023-11-24T00:45:58.990Z,2.44
2023-11-24T00:49:01.418Z,2.52
2023-11-24T00:52:03.980Z,2.61
2023-11-24T00:55:06.857Z,2.64
2023-11-24T00:58:09.879Z,2.64
2023-11-24T01:01:13.031Z,2.60
2023-11-24T01:04:17.189Z,2.63
2023-11-24T01:07:19.706Z,2.63
2023-11-24T01:10:22.901Z,2.59
2023-11-24T01:13:26.017Z,2.45
2023-11-24T01:16:28.317Z,2.34
2023-11-24T01:19:30.482Z,2.41
2023-11-24T01:22:32.721Z,2.45
2023-11-24T01:25:35.008Z,2.61
2023-11-24T01:28:37.173Z,2.63
2023-11-24T01:31:40.702Z,2.77
2023-11-24T01:34:43.005Z,2.84
2023-11-24T01:37:45.694Z,2.92
2023-11-24T01:40:48.009Z,3.01
2023-11-24T01:44:01.305Z,3.02
2023-11-24T01:47:04.473Z,3.13
2023-11-24T01:50:08.907Z,3.22
2023-11-24T01:53:11.687Z,3.13
2023-11-24T01:56:14.250Z,3.17
2023-11-24T01:59:16.687Z,3.23
2023-11-24T02:02:22.062Z,3.14
2023-11-24T02:05:25.257Z,3.29
2023-11-24T02:08:29.555Z,3.33
2023-11-24T02:11:31.843Z,3.17
2023-11-24T02:14:34.147Z,3.15
2023-11-24T02:17:37.352Z,3.15
2023-11-24T02:20:40.157Z,3.26
2023-11-24T02:23:43.651Z,3.41
2023-11-24T02:26:46.700Z,3.60
2023-11-24T02:29:52.239Z,3.75
2023-11-24T02:32:54.598Z,3.87
2023-11-24T02:35:57.807Z,3.86
2023-11-24T02:39:00.102Z,4.04
2023-11-24T02:42:02.370Z,4.06
2023-11-24T02:45:04.800Z,4.16
2023-11-24T02:48:07.064Z,4.21
2023-11-24T02:51:10.232Z,4.34
2023-11-24T02:54:12.552Z,4.41
2023-11-24T02:57:15.499Z,4.42
2023-11-24T03:00:19.419Z,4.38
2023-11-24T03:03:21.905Z,4.25
2023-11-24T03:06:24.285Z,4.17
2023-11-24T03:09:27.284Z,4.01
2023-11-24T03:12:29.882Z,3.85
2023-11-24T03:15:32.469Z,3.79
2023-11-24T03:18:35.093Z,3.67
2023-11-24T03:21:37.919Z,3.66
2023-11-24T03:24:40.401Z,3.42
2023-11-24T03:27:42.785Z,3.57
2023-11-24T03:30:45.735Z,3.47
2023-11-24T03:33:48.161Z,3.58
2023-11-24T03:36:50.858Z,3.67
2023-11-24T03:39:54.276Z,3.58
2023-11-24T03:42:56.675Z,3.55
2023-11-24T03:45:59.062Z,3.43
2023-11-24T03:49:01.265Z,3.27
2023-11-24T03:52:04.668Z,3.07
2023-11-24T03:55:08.839Z,3.14
2023-11-24T03:58:11.257Z,3.22
2023-11-24T04:01:16.815Z,3.23
2023-11-24T04:04:19.285Z,3.19
2023-11-24T04:07:21.621Z,3.29
2023-11-24T04:10:24.210Z,3.22
2023-11-24T04:13:27.538Z,3.32
2023-11-24T04:16:30.874Z,3.44
2023-11-24T04:19:34.219Z,3.58
2023-11-24T04:22:38.610Z,3.64
2023-11-24T04:25:44.912Z,3.74
2023-11-24T04:28:47.350Z,3.71
2023-11-24T04:31:49.668Z,3.73
2023-11-24T04:34:52.152Z,3.67
2023-11-24T04:37:54.426Z,3.67
2023-11-24T04:40:56.822Z,3.43
2023-11-24T04:43:59.002Z,3.48
2023-11-24T04:47:01.231Z,3.64
2023-11-24T04:50:03.669Z,3.67
2023-11-24T04:53:06.015Z,3.67
2023-11-24T04:56:08.426Z,3.57
2023-11-24T04:59:11.523Z,3.66
2023-11-24T05:02:13.916Z,3.58
2023-11-24T05:05:18.498Z,3.64
2023-11-24T05:08:20.818Z,3.70
2023-11-24T05:11:25.632Z,3.76
2023-11-24T05:14:27.904Z,3.77
2023-11-24T05:17:30.356Z,3.83
2023-11-24T05:20:32.744Z,3.88
2023-11-24T05:23:35.250Z,3.89
2023-11-24T05:26:38.769Z,3.93
2023-11-24T05:29:41.021Z,3.91
2023-11-24T05:32:45.577Z,3.87
2023-11-24T05:35:47.839Z,3.88
2023-11-24T05:38:49.986Z,3.95
2023-11-24T05:41:52.220Z,4.04
2023-11-24T05:44:54.529Z,4.07
2023-11-24T05:47:56.710Z,4.10
2023-11-24T05:51:00.560Z,4.16
2023-11-24T05:54:02.972Z,4.19
2023-11-24T05:57:06.078Z,4.23
2023-11-24T06:00:09.801Z,4.25
2023-11-24T06:03:15.079Z,4.28
2023-11-24T06:06:17.383Z,4.30
2023-11-24T06:09:20.002Z,4.33
2023-11-24T06:12:23.248Z,4.40
2023-11-24T06:15:25.711Z,4.36
2023-11-24T06:18:28.103Z,4.25
2023-11-24T06:21:30.727Z,4.21
2023-11-24T06:24:33.109Z,4.14
2023-11-24T06:27:35.564Z,4.27
2023-11-24T06:30:39.996Z,4.32
2023-11-24T06:33:42.607Z,4.25
2023-11-24T06:36:45.199Z,4.18
2023-11-24T06:39:48.141Z,4.13
2023-11-24T06:42:50.516Z,4.13
2023-11-24T06:45:53.060Z,4.17
2023-11-24T06:48:55.444Z,4.33
2023-11-24T06:51:58.044Z,4.26
2023-11-24T06:55:00.549Z,4.71
2023-11-24T06:58:02.950Z,4.82
2023-11-24T07:01:08.500Z,4.95
2023-11-24T07:04:11.075Z,4.96
2023-11-24T07:07:14.139Z,5.30
2023-11-24T07:10:16.543Z,5.70
2023-11-24T07:13:18.908Z,5.92
2023-11-24T07:16:21.379Z,6.04
2023-11-24T07:19:23.980Z,6.09
2023-11-24T07:22:26.345Z,6.12
2023-11-24T07:25:28.638Z,6.16
2023-11-24T07:28:30.949Z,6.21
2023-11-24T07:31:33.287Z,6.18
2023-11-24T07:34:35.643Z,6.15
2023-11-24T07:37:39.923Z,6.03
2023-11-24T07:40:42.308Z,6.07
2023-11-24T07:43:44.654Z,6.05
2023-11-24T07:46:47.019Z,6.10
2023-11-24T07:49:49.378Z,6.09
2023-11-24T07:52:54.510Z,6.20
2023-11-24T07:55:58.008Z,6.21
2023-11-24T07:59:00.429Z,6.26
2023-11-24T08:02:03.997Z,6.36
2023-11-24T08:05:06.611Z,6.50
2023-11-24T08:08:09.272Z,6.74
2023-11-24T08:11:12.191Z,7.54
2023-11-24T08:14:15.426Z,8.02
2023-11-24T08:17:17.827Z,7.45
2023-11-24T08:20:20.368Z,7.10
2023-11-24T08:23:22.686Z,6.97
2023-11-24T08:26:25.110Z,6.90
2023-11-24T08:29:27.758Z,7.00
2023-11-24T08:32:30.106Z,7.23
2023-11-24T08:35:32.499Z,8.82
2023-11-24T08:38:35.140Z,10.58
2023-11-24T08:41:40.658Z,12.19
2023-11-24T08:44:43.297Z,12.85
2023-11-24T08:47:47.821Z,14.62
2023-11-24T08:50:50.184Z,14.73
2023-11-24T08:53:52.477Z,15.98
2023-11-24T08:56:54.827Z,17.03
2023-11-24T08:59:57.094Z,14.28
2023-11-24T09:03:00.994Z,14.42
2023-11-24T09:06:03.861Z,14.93
2023-11-24T09:09:10.079Z,15.45
2023-11-24T09:12:13.851Z,16.90
2023-11-24T09:15:16.279Z,16.79
2023-11-24T09:18:18.681Z,16.22
2023-11-24T09:21:21.870Z,16.09
2023-11-24T09:24:24.368Z,16.79
2023-11-24T09:27:28.151Z,15.99
2023-11-24T09:30:40.748Z,15.79
2023-11-24T09:33:43.413Z,15.55
2023-11-24T09:36:47.427Z,15.68
2023-11-24T09:39:50.071Z,13.98
2023-11-24T09:42:52.741Z,16.14
2023-11-24T09:45:57.287Z,16.73
2023-11-24T09:49:00.095Z,15.67
2023-11-24T09:52:03.475Z,12.79
2023-11-24T09:55:06.457Z,12.47
2023-11-24T09:58:08.834Z,12.89
2023-11-24T10:01:28.257Z,11.65
2023-11-24T10:04:30.823Z,10.99
2023-11-24T10:07:35.385Z,10.39
2023-11-24T10:10:38.100Z,9.80
2023-11-24T10:13:45.407Z,9.70
2023-11-24T10:16:49.770Z,9.89
2023-11-24T10:19:54.965Z,10.62
2023-11-24T10:22:59.644Z,10.58
2023-11-24T10:26:02.652Z,10.12
2023-11-24T10:29:04.970Z,9.53
2023-11-24T10:32:07.811Z,9.09
2023-11-24T10:35:12.980Z,9.08
2023-11-24T10:38:21.501Z,9.13
2023-11-24T10:41:25.239Z,9.08
2023-11-24T10:44:27.608Z,8.90
2023-11-24T10:47:58.350Z,8.61
2023-11-24T10:51:05.904Z,8.54
2023-11-24T10:54:09.094Z,8.52
2023-11-24T10:57:12.404Z,8.32
2023-11-24T11:00:21.748Z,8.87
2023-11-24T11:03:24.120Z,11.74
2023-11-24T11:06:26.851Z,13.89
2023-11-24T11:10:05.225Z,13.94
2023-11-24T11:13:07.684Z,10.68
2023-11-24T11:16:13.696Z,9.33
2023-11-24T11:19:34.607Z,9.03
2023-11-24T11:22:38.051Z,8.55
2023-11-24T11:25:43.601Z,8.27
2023-11-24T11:28:47.981Z,8.23
2023-11-24T11:31:55.064Z,8.19
2023-11-24T11:34:57.584Z,8.25
2023-11-24T11:38:04.250Z,8.00
2023-11-24T11:41:06.557Z,8.54
2023-11-24T11:44:37.721Z,8.55
2023-11-24T11:47:50.940Z,8.11
2023-11-24T11:51:01.759Z,8.23
2023-11-24T11:54:06.297Z,8.30
2023-11-24T11:57:09.003Z,12.48
2023-11-24T12:00:11.831Z,17.04
2023-11-24T12:03:14.376Z,16.13
2023-11-24T12:06:16.882Z,19.46
2023-11-24T12:09:20.764Z,14.84
2023-11-24T12:12:24.426Z,15.78
2023-11-24T12:15:26.769Z,19.46
2023-11-24T12:18:29.446Z,21.44
2023-11-24T12:21:32.752Z,13.12
2023-11-24T12:24:37.503Z,10.93
2023-11-24T12:27:46.047Z,15.58
2023-11-24T12:30:49.416Z,11.37
2023-11-24T12:33:53.174Z,10.39
2023-11-24T12:36:56.239Z,9.60
2023-11-24T12:39:58.782Z,9.18
2023-11-24T12:43:02.018Z,8.86
2023-11-24T12:46:04.788Z,8.27
2023-11-24T12:49:10.438Z,8.53
2023-11-24T12:55:16.329Z,8.36
2023-11-24T12:58:18.680Z,8.63
2023-11-24T13:01:21.024Z,8.40
2023-11-24T13:04:24.987Z,8.18
2023-11-24T13:07:27.586Z,8.07
2023-11-24T13:10:40.289Z,7.91
2023-11-24T13:13:46.207Z,7.65
2023-11-24T13:16:49.780Z,7.65
2023-11-24T13:19:53.530Z,7.51
2023-11-24T13:22:55.954Z,7.32
2023-11-24T13:25:58.222Z,7.18
2023-11-24T13:29:00.639Z,7.15
2023-11-24T13:32:04.183Z,7.24
2023-11-24T13:35:06.899Z,7.27
2023-11-24T13:38:10.840Z,7.22
2023-11-24T13:41:13.383Z,7.15
2023-11-24T13:44:15.736Z,6.91
2023-11-24T13:47:18.632Z,6.69
2023-11-24T13:50:21.652Z,6.58
2023-11-24T13:53:23.987Z,6.55
2023-11-24T13:56:26.265Z,6.49
2023-11-24T13:59:30.389Z,6.43
2023-11-24T14:02:32.833Z,6.35
2023-11-24T14:05:35.372Z,6.36
2023-11-24T14:08:39.382Z,6.26
2023-11-24T14:11:41.707Z,6.28
2023-11-24T14:14:44.469Z,6.20
2023-11-24T14:17:46.945Z,6.12
2023-11-24T14:20:52.151Z,6.24
2023-11-24T14:23:54.480Z,6.03
2023-11-24T14:26:57.634Z,5.85
2023-11-24T14:29:59.921Z,5.68
2023-11-24T14:33:02.634Z,5.65
2023-11-24T14:36:08.129Z,5.62
2023-11-24T14:39:32.905Z,5.73
2023-11-24T14:42:35.328Z,5.64
2023-11-24T14:45:39.095Z,5.62
2023-11-24T14:48:42.500Z,5.43
2023-11-24T14:51:46.279Z,5.44
2023-11-24T14:54:52.888Z,5.50
2023-11-24T14:57:57.242Z,5.45
2023-11-24T15:01:02.651Z,5.28
2023-11-24T15:04:05.739Z,5.28
2023-11-24T15:07:09.841Z,5.08
2023-11-24T15:10:12.798Z,5.15
2023-11-24T15:13:22.568Z,5.19
2023-11-24T15:16:30.124Z,5.17
2023-11-24T15:19:36.112Z,5.20
2023-11-24T15:22:38.900Z,5.09
2023-11-24T15:25:54.632Z,5.07
2023-11-24T15:28:57.426Z,5.21
2023-11-24T15:31:59.864Z,5.33
2023-11-24T15:35:02.912Z,5.21
2023-11-24T15:38:05.322Z,5.30
2023-11-24T15:41:07.971Z,5.15
2023-11-24T15:44:10.392Z,5.23
2023-11-24T15:47:12.756Z,5.15
2023-11-24T15:50:15.931Z,5.22
2023-11-24T15:53:23.231Z,5.29
2023-11-24T15:56:32.603Z,5.34
2023-11-24T15:59:42.057Z,5.33
2023-11-24T16:02:44.576Z,5.06
2023-11-24T16:05:52.976Z,4.91
2023-11-24T16:08:56.664Z,4.97
2023-11-24T16:12:05.854Z,4.86
2023-11-24T16:15:16.970Z,4.73
2023-11-24T16:18:23.248Z,4.65
2023-11-24T16:21:32.181Z,4.64
2023-11-24T16:24:34.697Z,4.58
2023-11-24T16:27:41.377Z,4.56
2023-11-24T16:30:51.106Z,4.48
2023-11-24T16:33:56.476Z,4.47
2023-11-24T16:36:59.093Z,4.50
2023-11-24T16:40:01.977Z,4.47
2023-11-24T16:43:04.564Z,4.43
2023-11-24T16:46:08.555Z,4.45
2023-11-24T16:49:12.087Z,4.27
2023-11-24T16:52:15.345Z,4.31
2023-11-24T16:55:18.239Z,4.26
2023-11-24T16:58:20.745Z,4.29
2023-11-24T17:01:23.755Z,4.30
2023-11-24T17:04:30.921Z,4.30
2023-11-24T17:07:33.288Z,4.35
2023-11-24T17:10:46.992Z,4.22
2023-11-24T17:13:49.585Z,4.08
2023-11-24T17:16:52.485Z,3.98
2023-11-24T17:19:55.520Z,3.69
2023-11-24T17:22:57.882Z,3.64
2023-11-24T17:26:01.077Z,3.62
2023-11-24T17:29:03.709Z,3.61
2023-11-24T17:32:06.561Z,3.58
2023-11-24T17:35:13.656Z,3.42
2023-11-24T17:38:19.574Z,3.42
2023-11-24T17:41:25.102Z,3.40
2023-11-24T17:44:27.472Z,3.50
2023-11-24T17:47:31.289Z,3.38
2023-11-24T17:50:33.738Z,3.41
2023-11-24T17:53:36.869Z,3.21
2023-11-24T17:56:39.474Z,3.03
2023-11-24T17:59:41.814Z,3.15
2023-11-24T18:02:44.914Z,3.19
2023-11-24T18:05:47.305Z,3.01
2023-11-24T18:08:49.705Z,3.02
2023-11-24T18:11:52.091Z,3.08
2023-11-24T18:14:55.768Z,3.16
2023-11-24T18:17:58.346Z,3.15
2023-11-24T18:21:00.799Z,3.10
2023-11-24T18:24:03.437Z,3.08
2023-11-24T18:27:06.482Z,2.96
2023-11-24T18:30:10.993Z,2.98
2023-11-24T18:33:13.956Z,3.13
2023-11-24T18:36:17.435Z,3.14
2023-11-24T18:39:20.428Z,3.13
2023-11-24T18:42:24.154Z,3.28
2023-11-24T18:45:26.627Z,3.30
2023-11-24T18:48:29.753Z,3.43
2023-11-24T18:51:33.280Z,3.58
2023-11-24T18:54:35.645Z,3.41
2023-11-24T18:57:38.183Z,3.44
2023-11-24T19:00:40.772Z,3.40
2023-11-24T19:03:43.126Z,3.43
2023-11-24T19:06:46.470Z,3.40
2023-11-24T19:09:55.239Z,3.31
2023-11-24T19:12:57.756Z,3.49
2023-11-24T19:16:02.074Z,3.49
2023-11-24T19:19:04.554Z,3.46
2023-11-24T19:22:09.019Z,3.56
2023-11-24T19:25:13.893Z,3.38
2023-11-24T19:28:19.917Z,3.36
2023-11-24T19:31:22.508Z,3.34
2023-11-24T19:34:30.506Z,3.35
2023-11-24T19:37:33.558Z,3.13
2023-11-24T19:40:41.352Z,3.09
2023-11-24T19:43:44.920Z,3.04
2023-11-24T19:46:50.086Z,3.15
2023-11-24T19:49:53.475Z,3.07
2023-11-24T19:52:56.260Z,3.19
2023-11-24T19:55:59.124Z,3.41
2023-11-24T19:59:02.917Z,3.30
2023-11-24T20:02:06.212Z,3.39
2023-11-24T20:05:11.861Z,3.33
2023-11-24T20:08:14.199Z,3.35
2023-11-24T20:11:17.381Z,3.45
2023-11-24T20:14:19.885Z,3.50
2023-11-24T20:17:22.356Z,3.32
2023-11-24T20:20:24.729Z,3.40
2023-11-24T20:23:28.920Z,3.31
2023-11-24T20:26:31.339Z,3.39
2023-11-24T20:29:33.705Z,3.45
2023-11-24T20:32:36.206Z,3.38
2023-11-24T20:35:38.709Z,3.47
2023-11-24T20:38:41.217Z,3.64
2023-11-24T20:41:43.672Z,3.50
2023-11-24T20:44:46.833Z,3.42
2023-11-24T20:47:52.882Z,3.33
2023-11-24T20:50:55.467Z,3.24
2023-11-24T20:53:57.831Z,3.02
2023-11-24T20:57:00.931Z,3.05
2023-11-24T21:00:05.230Z,2.94
2023-11-24T21:03:09.150Z,2.99
2023-11-24T21:06:13.907Z,3.06
2023-11-24T21:09:16.526Z,3.17
2023-11-24T21:12:19.098Z,3.06
2023-11-24T21:15:21.475Z,3.17
2023-11-24T21:18:28.472Z,3.31
2023-11-24T21:21:31.558Z,3.13
2023-11-24T21:24:34.167Z,3.02
2023-11-24T21:27:36.845Z,3.32
2023-11-24T21:30:44.534Z,3.02
2023-11-24T21:33:48.473Z,2.66
2023-11-24T21:36:50.950Z,3.01
2023-11-24T21:40:01.661Z,2.81
2023-11-24T21:43:04.239Z,2.77
2023-11-24T21:46:06.917Z,2.77
2023-11-24T21:49:09.557Z,2.76
2023-11-24T21:52:12.110Z,2.38
2023-11-24T21:55:14.837Z,2.26
2023-11-24T21:58:18.803Z,2.15
2023-11-24T22:01:22.252Z,2.22
2023-11-24T22:04:24.898Z,2.29
2023-11-24T22:07:27.344Z,2.43
2023-11-24T22:10:32.215Z,2.43
2023-11-24T22:13:34.841Z,2.46
2023-11-24T22:16:37.480Z,2.29
2023-11-24T22:19:40.271Z,2.23
2023-11-24T22:22:42.807Z,2.17
2023-11-24T22:25:45.229Z,2.19
2023-11-24T22:28:47.536Z,2.14
2023-11-24T22:31:50.057Z,2.20
2023-11-24T22:34:52.382Z,2.34
2023-11-24T22:37:54.879Z,2.36
2023-11-24T22:40:57.231Z,2.51
2023-11-24T22:43:59.597Z,2.49
2023-11-24T22:47:02.136Z,2.64
2023-11-24T22:50:07.568Z,2.81
2023-11-24T22:53:09.959Z,3.01
2023-11-24T22:56:26.664Z,3.16
2023-11-24T22:59:29.362Z,3.32
2023-11-24T23:02:31.967Z,3.29
2023-11-24T23:05:39.008Z,3.37
2023-11-24T23:08:41.402Z,3.44
2023-11-24T23:11:43.731Z,3.48
2023-11-24T23:14:46.259Z,3.53
2023-11-24T23:17:49.451Z,3.58
2023-11-24T23:20:52.414Z,3.61
2023-11-24T23:23:56.470Z,3.39
2023-11-24T23:26:58.961Z,3.43
2023-11-24T23:30:01.351Z,3.31
2023-11-24T23:33:13.050Z,3.34
2023-11-24T23:36:20.280Z,3.31
2023-11-24T23:39:22.475Z,3.13
2023-11-24T23:42:28.164Z,3.00
2023-11-24T23:45:33.578Z,3.09
2023-11-24T23:48:36.226Z,2.97
2023-11-24T23:51:38.520Z,2.90
2023-11-24T23:54:40.940Z,2.94
2023-11-24T23:57:43.346Z,2.87
